Terminal Aerodrome Forecast
Issued by NWS

Home | Current Version | Previous Version | Text Only | Print | Product List | Glossary On
Versions: 1 2 3 4 5 6 7 8 9 10 11 12 13 14 15 16 17 18 19 20 21 22
000
FTUS43 KGLD 240520
TAFMCK
TAF
KMCK 240520Z 2406/2506 25010G16KT P6SM SKC
     FM241100 30010G16KT P6SM SKC
     FM242200 31006KT P6SM SCT150
     FM250200 25006KT P6SM SCT120=

USA.gov is the U.S. government's official web portal to all federal, state and local government web resources and services.